Woodstock, New Hampshire
Current Conditions -  °F | °C
As of 4:52 AM on Tuesday 21 Oct 2014 (Local Time) from KHIE Reporting Station
Light Rain Light Rain  
Wind Chill: 39°   Ceiling: 5000
Heat Index: 39°   Visibility: 10mi
Dew Point: 36°   Wind: 0mph
Humidity: 89%   Direction: NA
Pressure: 29.98"   Gusts: NA
Location:  44.3°N, 71.5°W
Report Text: KHIE 210852Z AUTO 00000KT 10SM -RA BKN050 OVC075 04/02 A2998 RMK AO2 RAB35 SLP160 P0000 60000 T00390022 53009
Loading
Personal Weather Stations






























Interactive Weather Map
Tropical Storm Tracking
New forecast layout! Learn more

10-Day Weather Forecast

Advertisements
Track Severe Weather on mobile